Stolt Bobcat — A8XZ9 — position and weather

sailwx.info

Track history (hours):
 
Tides and Currents Weather Stations Pressure Air Temp Water Temp Dewpoint Dewpoint Depression Visibility Wind Speed Wind Dir Waves Ship Positions

Stolt Bobcat

Last reported at 2018-Jun-09 11:23 UTC. Time now 2018-Jun-25 02:14 UTC.
Position N 28°52' W 093°55'.
Warning: this ship's position is 15 days out of date.

Length 155 m; draft 9 m.

Type: Ship (hazmat cat B). MMSI: 636015004.

Date/timePositionNaut miles runAvg speedWind from/ knotsBaromVisibWave heightAir tempDewpointWater temp
2018-Jun-09 11:23N 28°52' W 093°55'4312.1
2018-Jun-09 07:49N 29°16' W 094°36'511.3
2018-Jun-09 07:22N 29°20' W 094°40'410.5
2018-Jun-09 06:57N 29°21' W 094°45'7 9.8
2018-Jun-09 06:16N 29°26' W 094°50'311.3
2018-Jun-09 05:59N 29°29' W 094°51'611.3
2018-Jun-09 05:29N 29°33' W 094°55'511.3
2018-Jun-09 05:01N 29°38' W 094°58'5 9.5
2018-Jun-09 04:30N 29°42' W 095°01'1 2.9
2018-Jun-09 04:01N 29°43' W 095°01'0 0.0
2018-Jun-07 15:36N 29°43' W 095°01'0 0.0
2018-Jun-07 15:30N 29°43' W 095°01'3 4.9
2018-Jun-07 14:59N 29°41' W 094°59'5 9.6
2018-Jun-07 14:30N 29°37' W 094°57'611.5
2018-Jun-07 14:00N 29°32' W 094°54'611.7
2018-Jun-07 13:30N 29°27' W 094°51'611.9
2018-Jun-07 13:00N 29°22' W 094°48'511.0
2018-Jun-07 12:30N 29°21' W 094°42'611.0
2018-Jun-07 12:00N 29°18' W 094°36'3 6.8
2018-Jun-07 11:30N 29°15' W 094°35'1 0.4
2018-Jun-07 09:29N 29°14' W 094°36'0 0.0
2018-Jun-07 08:59N 29°14' W 094°36'0 0.0
2018-Jun-07 08:29N 29°14' W 094°36'0 0.0
2018-Jun-07 07:53N 29°14' W 094°36'0 0.0
2018-Jun-07 07:29N 29°14' W 094°36'0 0.0
2018-Jun-07 06:50N 29°14' W 094°35'0 0.0
2018-Jun-07 06:17N 29°14' W 094°36'0 0.0
2018-Jun-07 05:47N 29°14' W 094°35'0 0.0
2018-Jun-07 05:17N 29°14' W 094°36'0 0.0
2018-Jun-07 04:59N 29°14' W 094°35'0 0.0
2018-Jun-07 03:53N 29°14' W 094°36'0 0.0
2018-Jun-07 03:26N 29°14' W 094°35'0 0.0
2018-Jun-07 02:41N 29°14' W 094°35'0 0.0
2018-Jun-07 02:29N 29°14' W 094°35'0 0.0
2018-Jun-07 01:59N 29°14' W 094°35'0 0.0
2018-Jun-07 01:05N 29°14' W 094°35'0 0.1
2018-Jun-07 00:59N 29°14' W 094°35'0 0.0
2018-Jun-07 00:29N 29°14' W 094°35'0 0.0
2018-Jun-06 23:47N 29°14' W 094°35'0 0.0
2018-Jun-06 23:29N 29°14' W 094°35'0 0.0
2018-Jun-06 22:53N 29°14' W 094°35'0 0.0
2018-Jun-06 22:29N 29°14' W 094°35'0 0.0
2018-Jun-06 21:59N 29°14' W 094°35'0 0.0
2018-Jun-06 21:23N 29°14' W 094°35'0 0.0
2018-Jun-06 16:08N 29°14' W 094°35'0 0.0
2018-Jun-06 15:56N 29°14' W 094°35'0 0.0
2018-Jun-06 15:29N 29°14' W 094°35'0 0.0
2018-Jun-06 14:59N 29°14' W 094°35'0 0.0
2018-Jun-06 14:23N 29°14' W 094°35'0 0.0
2018-Jun-06 13:59N 29°14' W 094°35'0 0.0
2018-Jun-06 13:29N 29°14' W 094°35'0 0.0
2018-Jun-06 12:59N 29°14' W 094°35'0 0.0
2018-Jun-06 12:29N 29°14' W 094°35'0 0.0
2018-Jun-06 11:59N 29°14' W 094°35'0 0.0
2018-Jun-06 10:26N 29°14' W 094°35'0 0.0
2018-Jun-06 09:59N 29°14' W 094°35'0 0.0
2018-Jun-06 08:38N 29°14' W 094°35'0 0.1
2018-Jun-06 08:29N 29°14' W 094°35'0 0.0
2018-Jun-06 07:53N 29°14' W 094°35'0 0.0
2018-Jun-06 06:26N 29°14' W 094°35'0 0.0
2018-Jun-06 05:59N 29°14' W 094°35'0 0.0
2018-Jun-06 03:44N 29°14' W 094°35'0 0.0
2018-Jun-06 03:26N 29°14' W 094°35'0 0.0
2018-Jun-06 02:59N 29°14' W 094°35'0 0.0
2018-Jun-06 02:29N 29°14' W 094°35'0 0.0
2018-Jun-06 01:59N 29°14' W 094°35'0 0.0
2018-Jun-06 01:29N 29°14' W 094°35'0 0.0
2018-Jun-06 00:59N 29°14' W 094°35'0 0.0
2018-Jun-06 00:26N 29°14' W 094°35'0 0.0
2018-Jun-05 23:59N 29°14' W 094°35'0 0.0
2018-Jun-05 23:29N 29°14' W 094°35'0 0.0
2018-Jun-05 22:59N 29°14' W 094°35'0 0.0
2018-Jun-05 22:29N 29°14' W 094°35'0 0.0
2018-Jun-05 21:59N 29°14' W 094°35'0 0.0
2018-Jun-05 21:29N 29°14' W 094°35'0 0.0
2018-Jun-05 20:59N 29°14' W 094°35'0 0.0
2018-Jun-05 20:29N 29°14' W 094°35'0 0.0
2018-Jun-05 19:59N 29°14' W 094°35'0 0.0
2018-Jun-05 19:29N 29°14' W 094°35'0 0.0
2018-Jun-05 18:59N 29°14' W 094°35'0 0.0
2018-Jun-05 18:20N 29°14' W 094°35'0 0.0
2018-Jun-05 17:56N 29°14' W 094°35'0 0.0
2018-Jun-05 17:29N 29°14' W 094°35'0 0.0
2018-Jun-05 16:59N 29°14' W 094°35'0 0.0
2018-Jun-05 16:26N 29°14' W 094°35'0 0.0
2018-Jun-05 15:56N 29°14' W 094°35'0 0.0
2018-Jun-05 15:29N 29°14' W 094°35'0 0.0
2018-Jun-05 14:59N 29°14' W 094°35'0 0.0
2018-Jun-05 14:29N 29°14' W 094°35'0 0.0
2018-Jun-05 13:59N 29°14' W 094°35'0 0.0
2018-Jun-05 13:29N 29°14' W 094°35'0 0.0
2018-Jun-05 12:56N 29°14' W 094°35'0 0.0
2018-Jun-05 12:29N 29°14' W 094°35'0 0.0
2018-Jun-05 11:59N 29°14' W 094°35'0 0.0
2018-Jun-05 11:29N 29°14' W 094°35'0 0.0
2018-Jun-05 10:56N 29°14' W 094°35'0 0.0
2018-Jun-05 10:29N 29°14' W 094°35'0 0.0
2018-Jun-05 09:56N 29°14' W 094°35'0 0.0
2018-Jun-05 09:29N 29°14' W 094°35'0 0.0
2018-Jun-05 08:59N 29°14' W 094°35'0 0.0
2018-Jun-05 08:29N 29°14' W 094°35'0 0.0
2018-Jun-05 07:56N 29°14' W 094°35'0 0.0
2018-Jun-05 07:29N 29°14' W 094°35'0 0.0
2018-Jun-05 06:38N 29°14' W 094°35'0 0.0
2018-Jun-05 06:23N 29°14' W 094°35'0 0.0
2018-Jun-05 05:59N 29°14' W 094°35'0 0.0
2018-Jun-05 05:23N 29°14' W 094°35'0 0.0
2018-Jun-05 04:59N 29°14' W 094°35'0 0.0
2018-Jun-05 04:29N 29°14' W 094°35'0 0.0
2018-Jun-05 03:59N 29°14' W 094°35'0 0.0
2018-Jun-05 03:29N 29°14' W 094°35'0 0.0
2018-Jun-05 02:59N 29°14' W 094°35'0 0.0
2018-Jun-05 02:29N 29°14' W 094°35'0 0.0
2018-Jun-05 01:59N 29°14' W 094°35'0 0.0
2018-Jun-05 01:29N 29°14' W 094°35'0 0.0
2018-Jun-05 00:59N 29°14' W 094°35'0 0.0
2018-Jun-05 00:29N 29°14' W 094°35'0 0.0
2018-Jun-04 23:59N 29°14' W 094°35'0 0.0
2018-Jun-04 23:29N 29°14' W 094°35'0 0.0
2018-Jun-04 22:59N 29°14' W 094°35'0 0.0
2018-Jun-04 22:20N 29°14' W 094°35'0 0.0
2018-Jun-04 21:56N 29°14' W 094°35'0 0.0
2018-Jun-04 21:29N 29°14' W 094°35'0 0.0
2018-Jun-04 20:59N 29°14' W 094°35'0 0.0
2018-Jun-04 20:29N 29°14' W 094°35'0 0.0
2018-Jun-04 19:53N 29°14' W 094°35'0 0.0
2018-Jun-04 19:26N 29°14' W 094°35'0 0.0
2018-Jun-04 18:53N 29°14' W 094°35'0 0.0
2018-Jun-04 18:29N 29°14' W 094°35'0 0.0
2018-Jun-04 17:59N 29°14' W 094°35'0 0.0
2018-Jun-04 17:29N 29°14' W 094°35'0 0.0
2018-Jun-04 16:56N 29°14' W 094°35'0 0.0
2018-Jun-04 16:29N 29°14' W 094°35'0 0.0
2018-Jun-04 15:59N 29°14' W 094°35'0 0.0
2018-Jun-04 15:29N 29°14' W 094°35'0 0.0
2018-Jun-04 14:59N 29°14' W 094°35'0 0.0
2018-Jun-04 14:29N 29°14' W 094°35'0 0.0
2018-Jun-04 13:59N 29°14' W 094°35'0 0.0
2018-Jun-04 13:29N 29°14' W 094°35'0 0.0
2018-Jun-04 12:59N 29°14' W 094°35'0 0.0
2018-Jun-04 12:29N 29°14' W 094°35'0 0.0
2018-Jun-04 11:59N 29°14' W 094°35'0 0.0
2018-Jun-04 11:29N 29°14' W 094°35'0 0.0
2018-Jun-04 10:59N 29°14' W 094°35'0 0.0
2018-Jun-04 10:29N 29°14' W 094°35'0 0.0
2018-Jun-04 09:59N 29°14' W 094°35'0 0.0
2018-Jun-04 09:29N 29°14' W 094°35'0 0.0
2018-Jun-04 08:59N 29°14' W 094°35'0 0.0
2018-Jun-04 08:29N 29°14' W 094°35'0 0.0
2018-Jun-04 07:56N 29°14' W 094°35'0 0.0
2018-Jun-04 07:29N 29°14' W 094°35'0 0.1
2018-Jun-04 06:44N 29°14' W 094°35'0 0.0
2018-Jun-04 06:26N 29°14' W 094°35'0 0.0
2018-Jun-04 05:50N 29°14' W 094°35'0 0.0
2018-Jun-04 05:23N 29°14' W 094°35'0 0.0
2018-Jun-04 04:59N 29°14' W 094°35'0 0.0
2018-Jun-04 04:29N 29°14' W 094°35'0 0.0
2018-Jun-04 03:59N 29°14' W 094°35'0 0.0
2018-Jun-04 03:29N 29°14' W 094°35'0 0.0
2018-Jun-04 02:47N 29°14' W 094°35'0 0.0
2018-Jun-04 01:29N 29°14' W 094°35'0 0.0
2018-Jun-04 00:29N 29°14' W 094°35'0 0.0
2018-Jun-03 23:59N 29°14' W 094°35'0 0.0
2018-Jun-03 23:02N 29°14' W 094°35'0 0.0
2018-Jun-03 22:50N 29°14' W 094°35'0 0.0
2018-Jun-03 22:26N 29°14' W 094°35'0 0.0
2018-Jun-03 21:59N 29°14' W 094°35'0 0.0
2018-Jun-03 21:29N 29°14' W 094°35'0 0.0
2018-Jun-03 20:50N 29°14' W 094°35'0 0.0
2018-Jun-03 19:47N 29°14' W 094°35'0 0.0
2018-Jun-03 19:17N 29°14' W 094°35'0 0.0
2018-Jun-03 18:59N 29°14' W 094°35'0 0.0
2018-Jun-03 18:29N 29°14' W 094°35'0 0.0
2018-Jun-03 17:56N 29°14' W 094°35'0 0.0
2018-Jun-03 17:26N 29°14' W 094°35'0 0.0
2018-Jun-03 16:26N 29°14' W 094°35'0 0.0
2018-Jun-03 14:38N 29°14' W 094°35'0 0.0
2018-Jun-03 14:17N 29°14' W 094°35'0 0.0
2018-Jun-03 13:59N 29°14' W 094°35'0 0.0
2018-Jun-03 13:29N 29°14' W 094°35'0 0.0
2018-Jun-03 12:53N 29°14' W 094°35'0 0.0
2018-Jun-03 12:05N 29°14' W 094°35'0 0.0
2018-Jun-03 11:59N 29°14' W 094°35'0 0.0
2018-Jun-03 11:14N 29°14' W 094°35'0 0.0
2018-Jun-03 10:59N 29°14' W 094°35'0 0.0
2018-Jun-03 10:29N 29°14' W 094°35'0 0.0
2018-Jun-03 09:56N 29°14' W 094°35'0 0.0
2018-Jun-03 09:26N 29°14' W 094°35'0 0.0
2018-Jun-03 08:59N 29°14' W 094°35'0 0.0
2018-Jun-03 08:23N 29°14' W 094°35'0 0.0
2018-Jun-03 07:38N 29°14' W 094°35'0 0.0
2018-Jun-03 07:29N 29°14' W 094°35'0 0.0
2018-Jun-03 06:56N 29°14' W 094°35'0 0.0
2018-Jun-03 06:29N 29°14' W 094°35'0 0.0
2018-Jun-03 05:56N 29°14' W 094°35'0 0.0
2018-Jun-03 04:26N 29°14' W 094°35'0 0.0
2018-Jun-03 03:53N 29°14' W 094°35'0 0.0
2018-Jun-03 03:26N 29°14' W 094°35'0 0.0
2018-Jun-03 02:59N 29°14' W 094°35'0 0.0
2018-Jun-03 02:29N 29°14' W 094°35'0 0.0
2018-Jun-03 01:47N 29°14' W 094°35'0 0.0
2018-Jun-03 01:26N 29°14' W 094°35'0 0.0
2018-Jun-03 00:59N 29°14' W 094°35'0 0.0
2018-Jun-03 00:29N 29°14' W 094°35'0 0.0
2018-Jun-02 23:59N 29°14' W 094°35'0 0.0
2018-Jun-02 23:29N 29°14' W 094°35'0 0.0
2018-Jun-02 22:50N 29°14' W 094°35'0 0.0
2018-Jun-02 22:23N 29°14' W 094°35'0 0.0
2018-Jun-02 21:56N 29°14' W 094°35'0 0.0
2018-Jun-02 21:26N 29°14' W 094°35'0 0.0
2018-Jun-02 20:53N 29°14' W 094°35'0 0.0
2018-Jun-02 20:26N 29°14' W 094°35'0 0.0
2018-Jun-02 19:59N 29°14' W 094°35'0 0.0
2018-Jun-01 20:23N 29°14' W 094°35'0 0.0
2018-Jun-01 05:14N 29°14' W 094°35'0 0.0
2018-Jun-01 04:44N 29°14' W 094°35'0 0.0
2018-Jun-01 00:50N 29°14' W 094°35'0 0.0
2018-Jun-01 00:17N 29°14' W 094°35'0 0.0
2018-May-31 23:59N 29°14' W 094°35'0 0.0
2018-May-31 23:26N 29°14' W 094°35'0 0.0
2018-May-31 22:59N 29°14' W 094°35'0 0.0
2018-May-31 22:26N 29°14' W 094°35'0 0.0
2018-May-31 21:59N 29°14' W 094°35'0 0.0
2018-May-31 21:29N 29°14' W 094°35'0 0.0
2018-May-31 20:59N 29°14' W 094°35'0 0.0
2018-May-31 20:26N 29°14' W 094°35'0 0.0
2018-May-31 19:56N 29°14' W 094°35'0 0.0
2018-May-31 19:05N 29°14' W 094°35'0 0.0
2018-May-31 18:41N 29°14' W 094°35'0 0.0
2018-May-31 18:11N 29°14' W 094°35'0 0.0
2018-May-31 17:53N 29°14' W 094°35'0 0.0
2018-May-31 17:26N 29°14' W 094°35'0 0.0
2018-May-31 14:35N 29°14' W 094°35'0 0.1
2018-May-31 14:29N 29°14' W 094°35'0 0.0
2018-May-31 13:59N 29°14' W 094°35'0 0.0
2018-May-31 12:17N 29°14' W 094°35'0 0.0
2018-May-31 11:47N 29°14' W 094°35'0 0.0
2018-May-31 06:50N 29°14' W 094°35'0 0.0
2018-May-31 05:23N 29°14' W 094°35'0 0.0
2018-May-31 04:56N 29°14' W 094°35'0 0.0
2018-May-31 04:26N 29°14' W 094°35'0 0.0
2018-May-31 03:59N 29°14' W 094°35'0 0.0
2018-May-31 03:23N 29°14' W 094°35'0 0.0
2018-May-31 02:59N 29°14' W 094°35'0 0.0
2018-May-31 02:29N 29°14' W 094°35'0 0.0
2018-May-31 01:59N 29°14' W 094°35'0 0.0
2018-May-31 01:29N 29°14' W 094°35'0 0.0
2018-May-31 00:56N 29°14' W 094°35'0 0.0
2018-May-31 00:29N 29°14' W 094°35'0 0.0
2018-May-30 22:56N 29°14' W 094°35'0 0.0
2018-May-30 22:23N 29°14' W 094°35'0 0.0
2018-May-30 21:59N 29°14' W 094°35'0 0.0
2018-May-30 21:23N 29°14' W 094°35'0 0.0
2018-May-30 20:56N 29°14' W 094°35'0 0.0
2018-May-30 20:29N 29°14' W 094°35'0 0.0
2018-May-30 19:59N 29°14' W 094°35'0 0.0
2018-May-30 19:26N 29°14' W 094°35'0 0.0
2018-May-30 18:59N 29°14' W 094°35'0 0.0
2018-May-30 18:23N 29°14' W 094°35'0 0.0
2018-May-30 17:50N 29°14' W 094°35'0 0.0
2018-May-30 17:17N 29°14' W 094°35'0 0.0
2018-May-30 16:53N 29°14' W 094°35'0 0.0
2018-May-30 16:29N 29°14' W 094°35'0 0.0
2018-May-30 15:56N 29°14' W 094°35'0 0.0
2018-May-30 15:23N 29°14' W 094°35'0 0.0
2018-May-30 14:59N 29°14' W 094°35'0 0.0
2018-May-30 14:11N 29°14' W 094°35'0 0.0
2018-May-30 13:59N 29°14' W 094°35'0 0.0
2018-May-30 13:23N 29°14' W 094°35'0 0.2
2018-May-30 12:57N 29°14' W 094°35'3 5.7
2018-May-30 12:30N 29°16' W 094°37'610.5
2018-May-30 11:58N 29°20' W 094°41'510.2
2018-May-30 11:30N 29°21' W 094°47'  
Track history (hours):
 
Tides and Currents Weather Stations Pressure Air Temp Water Temp Dewpoint Dewpoint Depression Visibility Wind Speed Wind Dir Waves Ship Positions

Stolt Bobcat

Last reported at 2018-Jun-09 11:23 UTC. Time now 2018-Jun-25 02:14 UTC.
Position N 28°52' W 093°55'.
Warning: this ship's position is 15 days out of date.

Length 155 m; draft 9 m.

Type: Ship (hazmat cat B). MMSI: 636015004.

Date/timePositionNaut miles runAvg speedWind from/ knotsBaromVisibWave heightAir tempDewpointWater temp
2018-Jun-09 11:23N 28°52' W 093°55'4312.1
2018-Jun-09 07:49N 29°16' W 094°36'511.3
2018-Jun-09 07:22N 29°20' W 094°40'410.5
2018-Jun-09 06:57N 29°21' W 094°45'7 9.8
2018-Jun-09 06:16N 29°26' W 094°50'311.3
2018-Jun-09 05:59N 29°29' W 094°51'611.3
2018-Jun-09 05:29N 29°33' W 094°55'511.3
2018-Jun-09 05:01N 29°38' W 094°58'5 9.5
2018-Jun-09 04:30N 29°42' W 095°01'1 2.9
2018-Jun-09 04:01N 29°43' W 095°01'0 0.0
2018-Jun-07 15:36N 29°43' W 095°01'0 0.0
2018-Jun-07 15:30N 29°43' W 095°01'3 4.9
2018-Jun-07 14:59N 29°41' W 094°59'5 9.6
2018-Jun-07 14:30N 29°37' W 094°57'611.5
2018-Jun-07 14:00N 29°32' W 094°54'611.7
2018-Jun-07 13:30N 29°27' W 094°51'611.9
2018-Jun-07 13:00N 29°22' W 094°48'511.0
2018-Jun-07 12:30N 29°21' W 094°42'611.0
2018-Jun-07 12:00N 29°18' W 094°36'3 6.8
2018-Jun-07 11:30N 29°15' W 094°35'1 0.4
2018-Jun-07 09:29N 29°14' W 094°36'0 0.0
2018-Jun-07 08:59N 29°14' W 094°36'0 0.0
2018-Jun-07 08:29N 29°14' W 094°36'0 0.0
2018-Jun-07 07:53N 29°14' W 094°36'0 0.0
2018-Jun-07 07:29N 29°14' W 094°36'0 0.0
2018-Jun-07 06:50N 29°14' W 094°35'0 0.0
2018-Jun-07 06:17N 29°14' W 094°36'0 0.0
2018-Jun-07 05:47N 29°14' W 094°35'0 0.0
2018-Jun-07 05:17N 29°14' W 094°36'0 0.0
2018-Jun-07 04:59N 29°14' W 094°35'0 0.0
2018-Jun-07 03:53N 29°14' W 094°36'0 0.0
2018-Jun-07 03:26N 29°14' W 094°35'0 0.0
2018-Jun-07 02:41N 29°14' W 094°35'0 0.0
2018-Jun-07 02:29N 29°14' W 094°35'0 0.0
2018-Jun-07 01:59N 29°14' W 094°35'0 0.0
2018-Jun-07 01:05N 29°14' W 094°35'0 0.1
2018-Jun-07 00:59N 29°14' W 094°35'0 0.0
2018-Jun-07 00:29N 29°14' W 094°35'0 0.0
2018-Jun-06 23:47N 29°14' W 094°35'0 0.0
2018-Jun-06 23:29N 29°14' W 094°35'0 0.0
2018-Jun-06 22:53N 29°14' W 094°35'0 0.0
2018-Jun-06 22:29N 29°14' W 094°35'0 0.0
2018-Jun-06 21:59N 29°14' W 094°35'0 0.0
2018-Jun-06 21:23N 29°14' W 094°35'0 0.0
2018-Jun-06 16:08N 29°14' W 094°35'0 0.0
2018-Jun-06 15:56N 29°14' W 094°35'0 0.0
2018-Jun-06 15:29N 29°14' W 094°35'0 0.0
2018-Jun-06 14:59N 29°14' W 094°35'0 0.0
2018-Jun-06 14:23N 29°14' W 094°35'0 0.0
2018-Jun-06 13:59N 29°14' W 094°35'0 0.0
2018-Jun-06 13:29N 29°14' W 094°35'0 0.0
2018-Jun-06 12:59N 29°14' W 094°35'0 0.0
2018-Jun-06 12:29N 29°14' W 094°35'0 0.0
2018-Jun-06 11:59N 29°14' W 094°35'0 0.0
2018-Jun-06 10:26N 29°14' W 094°35'0 0.0
2018-Jun-06 09:59N 29°14' W 094°35'0 0.0
2018-Jun-06 08:38N 29°14' W 094°35'0 0.1
2018-Jun-06 08:29N 29°14' W 094°35'0 0.0
2018-Jun-06 07:53N 29°14' W 094°35'0 0.0
2018-Jun-06 06:26N 29°14' W 094°35'0 0.0
2018-Jun-06 05:59N 29°14' W 094°35'0 0.0
2018-Jun-06 03:44N 29°14' W 094°35'0 0.0
2018-Jun-06 03:26N 29°14' W 094°35'0 0.0
2018-Jun-06 02:59N 29°14' W 094°35'0 0.0
2018-Jun-06 02:29N 29°14' W 094°35'0 0.0
2018-Jun-06 01:59N 29°14' W 094°35'0 0.0
2018-Jun-06 01:29N 29°14' W 094°35'0 0.0
2018-Jun-06 00:59N 29°14' W 094°35'0 0.0
2018-Jun-06 00:26N 29°14' W 094°35'0 0.0
2018-Jun-05 23:59N 29°14' W 094°35'0 0.0
2018-Jun-05 23:29N 29°14' W 094°35'0 0.0
2018-Jun-05 22:59N 29°14' W 094°35'0 0.0
2018-Jun-05 22:29N 29°14' W 094°35'0 0.0
2018-Jun-05 21:59N 29°14' W 094°35'0 0.0
2018-Jun-05 21:29N 29°14' W 094°35'0 0.0
2018-Jun-05 20:59N 29°14' W 094°35'0 0.0
2018-Jun-05 20:29N 29°14' W 094°35'0 0.0
2018-Jun-05 19:59N 29°14' W 094°35'0 0.0
2018-Jun-05 19:29N 29°14' W 094°35'0 0.0
2018-Jun-05 18:59N 29°14' W 094°35'0 0.0
2018-Jun-05 18:20N 29°14' W 094°35'0 0.0
2018-Jun-05 17:56N 29°14' W 094°35'0 0.0
2018-Jun-05 17:29N 29°14' W 094°35'0 0.0
2018-Jun-05 16:59N 29°14' W 094°35'0 0.0
2018-Jun-05 16:26N 29°14' W 094°35'0 0.0
2018-Jun-05 15:56N 29°14' W 094°35'0 0.0
2018-Jun-05 15:29N 29°14' W 094°35'0 0.0
2018-Jun-05 14:59N 29°14' W 094°35'0 0.0
2018-Jun-05 14:29N 29°14' W 094°35'0 0.0
2018-Jun-05 13:59N 29°14' W 094°35'0 0.0
2018-Jun-05 13:29N 29°14' W 094°35'0 0.0
2018-Jun-05 12:56N 29°14' W 094°35'0 0.0
2018-Jun-05 12:29N 29°14' W 094°35'0 0.0
2018-Jun-05 11:59N 29°14' W 094°35'0 0.0
2018-Jun-05 11:29N 29°14' W 094°35'0 0.0
2018-Jun-05 10:56N 29°14' W 094°35'0 0.0
2018-Jun-05 10:29N 29°14' W 094°35'0 0.0
2018-Jun-05 09:56N 29°14' W 094°35'0 0.0
2018-Jun-05 09:29N 29°14' W 094°35'0 0.0
2018-Jun-05 08:59N 29°14' W 094°35'0 0.0
2018-Jun-05 08:29N 29°14' W 094°35'0 0.0
2018-Jun-05 07:56N 29°14' W 094°35'0 0.0
2018-Jun-05 07:29N 29°14' W 094°35'0 0.0
2018-Jun-05 06:38N 29°14' W 094°35'0 0.0
2018-Jun-05 06:23N 29°14' W 094°35'0 0.0
2018-Jun-05 05:59N 29°14' W 094°35'0 0.0
2018-Jun-05 05:23N 29°14' W 094°35'0 0.0
2018-Jun-05 04:59N 29°14' W 094°35'0 0.0
2018-Jun-05 04:29N 29°14' W 094°35'0 0.0
2018-Jun-05 03:59N 29°14' W 094°35'0 0.0
2018-Jun-05 03:29N 29°14' W 094°35'0 0.0
2018-Jun-05 02:59N 29°14' W 094°35'0 0.0
2018-Jun-05 02:29N 29°14' W 094°35'0 0.0
2018-Jun-05 01:59N 29°14' W 094°35'0 0.0
2018-Jun-05 01:29N 29°14' W 094°35'0 0.0
2018-Jun-05 00:59N 29°14' W 094°35'0 0.0
2018-Jun-05 00:29N 29°14' W 094°35'0 0.0
2018-Jun-04 23:59N 29°14' W 094°35'0 0.0
2018-Jun-04 23:29N 29°14' W 094°35'0 0.0
2018-Jun-04 22:59N 29°14' W 094°35'0 0.0
2018-Jun-04 22:20N 29°14' W 094°35'0 0.0
2018-Jun-04 21:56N 29°14' W 094°35'0 0.0
2018-Jun-04 21:29N 29°14' W 094°35'0 0.0
2018-Jun-04 20:59N 29°14' W 094°35'0 0.0
2018-Jun-04 20:29N 29°14' W 094°35'0 0.0
2018-Jun-04 19:53N 29°14' W 094°35'0 0.0
2018-Jun-04 19:26N 29°14' W 094°35'0 0.0
2018-Jun-04 18:53N 29°14' W 094°35'0 0.0
2018-Jun-04 18:29N 29°14' W 094°35'0 0.0
2018-Jun-04 17:59N 29°14' W 094°35'0 0.0
2018-Jun-04 17:29N 29°14' W 094°35'0 0.0
2018-Jun-04 16:56N 29°14' W 094°35'0 0.0
2018-Jun-04 16:29N 29°14' W 094°35'0 0.0
2018-Jun-04 15:59N 29°14' W 094°35'0 0.0
2018-Jun-04 15:29N 29°14' W 094°35'0 0.0
2018-Jun-04 14:59N 29°14' W 094°35'0 0.0
2018-Jun-04 14:29N 29°14' W 094°35'0 0.0
2018-Jun-04 13:59N 29°14' W 094°35'0 0.0
2018-Jun-04 13:29N 29°14' W 094°35'0 0.0
2018-Jun-04 12:59N 29°14' W 094°35'0 0.0
2018-Jun-04 12:29N 29°14' W 094°35'0 0.0
2018-Jun-04 11:59N 29°14' W 094°35'0 0.0
2018-Jun-04 11:29N 29°14' W 094°35'0 0.0
2018-Jun-04 10:59N 29°14' W 094°35'0 0.0
2018-Jun-04 10:29N 29°14' W 094°35'0 0.0
2018-Jun-04 09:59N 29°14' W 094°35'0 0.0
2018-Jun-04 09:29N 29°14' W 094°35'0 0.0
2018-Jun-04 08:59N 29°14' W 094°35'0 0.0
2018-Jun-04 08:29N 29°14' W 094°35'0 0.0
2018-Jun-04 07:56N 29°14' W 094°35'0 0.0
2018-Jun-04 07:29N 29°14' W 094°35'0 0.1
2018-Jun-04 06:44N 29°14' W 094°35'0 0.0
2018-Jun-04 06:26N 29°14' W 094°35'0 0.0
2018-Jun-04 05:50N 29°14' W 094°35'0 0.0
2018-Jun-04 05:23N 29°14' W 094°35'0 0.0
2018-Jun-04 04:59N 29°14' W 094°35'0 0.0
2018-Jun-04 04:29N 29°14' W 094°35'0 0.0
2018-Jun-04 03:59N 29°14' W 094°35'0 0.0
2018-Jun-04 03:29N 29°14' W 094°35'0 0.0
2018-Jun-04 02:47N 29°14' W 094°35'0 0.0
2018-Jun-04 01:29N 29°14' W 094°35'0 0.0
2018-Jun-04 00:29N 29°14' W 094°35'0 0.0
2018-Jun-03 23:59N 29°14' W 094°35'0 0.0
2018-Jun-03 23:02N 29°14' W 094°35'0 0.0
2018-Jun-03 22:50N 29°14' W 094°35'0 0.0
2018-Jun-03 22:26N 29°14' W 094°35'0 0.0
2018-Jun-03 21:59N 29°14' W 094°35'0 0.0
2018-Jun-03 21:29N 29°14' W 094°35'0 0.0
2018-Jun-03 20:50N 29°14' W 094°35'0 0.0
2018-Jun-03 19:47N 29°14' W 094°35'0 0.0
2018-Jun-03 19:17N 29°14' W 094°35'0 0.0
2018-Jun-03 18:59N 29°14' W 094°35'0 0.0
2018-Jun-03 18:29N 29°14' W 094°35'0 0.0
2018-Jun-03 17:56N 29°14' W 094°35'0 0.0
2018-Jun-03 17:26N 29°14' W 094°35'0 0.0
2018-Jun-03 16:26N 29°14' W 094°35'0 0.0
2018-Jun-03 14:38N 29°14' W 094°35'0 0.0
2018-Jun-03 14:17N 29°14' W 094°35'0 0.0
2018-Jun-03 13:59N 29°14' W 094°35'0 0.0
2018-Jun-03 13:29N 29°14' W 094°35'0 0.0
2018-Jun-03 12:53N 29°14' W 094°35'0 0.0
2018-Jun-03 12:05N 29°14' W 094°35'0 0.0
2018-Jun-03 11:59N 29°14' W 094°35'0 0.0
2018-Jun-03 11:14N 29°14' W 094°35'0 0.0
2018-Jun-03 10:59N 29°14' W 094°35'0 0.0
2018-Jun-03 10:29N 29°14' W 094°35'0 0.0
2018-Jun-03 09:56N 29°14' W 094°35'0 0.0
2018-Jun-03 09:26N 29°14' W 094°35'0 0.0
2018-Jun-03 08:59N 29°14' W 094°35'0 0.0
2018-Jun-03 08:23N 29°14' W 094°35'0 0.0
2018-Jun-03 07:38N 29°14' W 094°35'0 0.0
2018-Jun-03 07:29N 29°14' W 094°35'0 0.0
2018-Jun-03 06:56N 29°14' W 094°35'0 0.0
2018-Jun-03 06:29N 29°14' W 094°35'0 0.0
2018-Jun-03 05:56N 29°14' W 094°35'0 0.0
2018-Jun-03 04:26N 29°14' W 094°35'0 0.0
2018-Jun-03 03:53N 29°14' W 094°35'0 0.0
2018-Jun-03 03:26N 29°14' W 094°35'0 0.0
2018-Jun-03 02:59N 29°14' W 094°35'0 0.0
2018-Jun-03 02:29N 29°14' W 094°35'0 0.0
2018-Jun-03 01:47N 29°14' W 094°35'0 0.0
2018-Jun-03 01:26N 29°14' W 094°35'0 0.0
2018-Jun-03 00:59N 29°14' W 094°35'0 0.0
2018-Jun-03 00:29N 29°14' W 094°35'0 0.0
2018-Jun-02 23:59N 29°14' W 094°35'0 0.0
2018-Jun-02 23:29N 29°14' W 094°35'0 0.0
2018-Jun-02 22:50N 29°14' W 094°35'0 0.0
2018-Jun-02 22:23N 29°14' W 094°35'0 0.0
2018-Jun-02 21:56N 29°14' W 094°35'0 0.0
2018-Jun-02 21:26N 29°14' W 094°35'0 0.0
2018-Jun-02 20:53N 29°14' W 094°35'0 0.0
2018-Jun-02 20:26N 29°14' W 094°35'0 0.0
2018-Jun-02 19:59N 29°14' W 094°35'0 0.0
2018-Jun-01 20:23N 29°14' W 094°35'0 0.0
2018-Jun-01 05:14N 29°14' W 094°35'0 0.0
2018-Jun-01 04:44N 29°14' W 094°35'0 0.0
2018-Jun-01 00:50N 29°14' W 094°35'0 0.0
2018-Jun-01 00:17N 29°14' W 094°35'0 0.0
2018-May-31 23:59N 29°14' W 094°35'0 0.0
2018-May-31 23:26N 29°14' W 094°35'0 0.0
2018-May-31 22:59N 29°14' W 094°35'0 0.0
2018-May-31 22:26N 29°14' W 094°35'0 0.0
2018-May-31 21:59N 29°14' W 094°35'0 0.0
2018-May-31 21:29N 29°14' W 094°35'0 0.0
2018-May-31 20:59N 29°14' W 094°35'0 0.0
2018-May-31 20:26N 29°14' W 094°35'0 0.0
2018-May-31 19:56N 29°14' W 094°35'0 0.0
2018-May-31 19:05N 29°14' W 094°35'0 0.0
2018-May-31 18:41N 29°14' W 094°35'0 0.0
2018-May-31 18:11N 29°14' W 094°35'0 0.0
2018-May-31 17:53N 29°14' W 094°35'0 0.0
2018-May-31 17:26N 29°14' W 094°35'0 0.0
2018-May-31 14:35N 29°14' W 094°35'0 0.1
2018-May-31 14:29N 29°14' W 094°35'0 0.0
2018-May-31 13:59N 29°14' W 094°35'0 0.0
2018-May-31 12:17N 29°14' W 094°35'0 0.0
2018-May-31 11:47N 29°14' W 094°35'0 0.0
2018-May-31 06:50N 29°14' W 094°35'0 0.0
2018-May-31 05:23N 29°14' W 094°35'0 0.0
2018-May-31 04:56N 29°14' W 094°35'0 0.0
2018-May-31 04:26N 29°14' W 094°35'0 0.0
2018-May-31 03:59N 29°14' W 094°35'0 0.0
2018-May-31 03:23N 29°14' W 094°35'0 0.0
2018-May-31 02:59N 29°14' W 094°35'0 0.0
2018-May-31 02:29N 29°14' W 094°35'0 0.0
2018-May-31 01:59N 29°14' W 094°35'0 0.0
2018-May-31 01:29N 29°14' W 094°35'0 0.0
2018-May-31 00:56N 29°14' W 094°35'0 0.0
2018-May-31 00:29N 29°14' W 094°35'0 0.0
2018-May-30 22:56N 29°14' W 094°35'0 0.0
2018-May-30 22:23N 29°14' W 094°35'0 0.0
2018-May-30 21:59N 29°14' W 094°35'0 0.0
2018-May-30 21:23N 29°14' W 094°35'0 0.0
2018-May-30 20:56N 29°14' W 094°35'0 0.0
2018-May-30 20:29N 29°14' W 094°35'0 0.0
2018-May-30 19:59N 29°14' W 094°35'0 0.0
2018-May-30 19:26N 29°14' W 094°35'0 0.0
2018-May-30 18:59N 29°14' W 094°35'0 0.0
2018-May-30 18:23N 29°14' W 094°35'0 0.0
2018-May-30 17:50N 29°14' W 094°35'0 0.0
2018-May-30 17:17N 29°14' W 094°35'0 0.0
2018-May-30 16:53N 29°14' W 094°35'0 0.0
2018-May-30 16:29N 29°14' W 094°35'0 0.0
2018-May-30 15:56N 29°14' W 094°35'0 0.0
2018-May-30 15:23N 29°14' W 094°35'0 0.0
2018-May-30 14:59N 29°14' W 094°35'0 0.0
2018-May-30 14:11N 29°14' W 094°35'0 0.0
2018-May-30 13:59N 29°14' W 094°35'0 0.0
2018-May-30 13:23N 29°14' W 094°35'0 0.2
2018-May-30 12:57N 29°14' W 094°35'3 5.7
2018-May-30 12:30N 29°16' W 094°37'610.5
2018-May-30 11:58N 29°20' W 094°41'510.2
2018-May-30 11:30N 29°21' W 094°47'  

Dump ship's entire track history